createdAt,value
2018-06-04T00:00:01.496Z,17.70
2018-06-04T00:02:29.898Z,17.70
2018-06-04T00:04:58.368Z,17.70
2018-06-04T00:07:26.767Z,17.70
2018-06-04T00:09:57.759Z,17.70
2018-06-04T00:12:26.184Z,17.60
2018-06-04T00:14:54.643Z,17.60
2018-06-04T00:17:23.054Z,17.60
2018-06-04T00:19:51.476Z,17.60
2018-06-04T00:22:20.003Z,17.60
2018-06-04T00:24:48.438Z,17.60
2018-06-04T00:27:16.867Z,17.50
2018-06-04T00:29:45.364Z,17.50
2018-06-04T00:32:13.827Z,17.50
2018-06-04T00:34:42.251Z,17.50
2018-06-04T00:37:10.682Z,17.50
2018-06-04T00:39:39.095Z,17.40
2018-06-04T00:42:07.494Z,17.40
2018-06-04T00:44:36.553Z,17.40
2018-06-04T00:47:05.154Z,17.30
2018-06-04T00:49:33.567Z,17.30
2018-06-04T00:52:01.968Z,17.30
2018-06-04T00:54:30.724Z,17.30
2018-06-04T00:56:59.152Z,17.20
2018-06-04T00:59:27.626Z,17.20
2018-06-04T01:01:56.046Z,17.20
2018-06-04T01:04:24.444Z,17.10
2018-06-04T01:06:52.940Z,17.10
2018-06-04T01:09:21.375Z,17.10
2018-06-04T01:11:49.782Z,17.10
2018-06-04T01:14:18.202Z,17.10
2018-06-04T01:16:46.613Z,17.00
2018-06-04T01:19:15.027Z,17.00
2018-06-04T01:21:43.440Z,17.00
2018-06-04T01:24:11.933Z,17.00
2018-06-04T01:26:40.336Z,16.90
2018-06-04T01:29:08.744Z,16.80
2018-06-04T01:31:37.176Z,16.80
2018-06-04T01:34:05.600Z,16.80
2018-06-04T01:36:34.018Z,16.80
2018-06-04T01:39:02.487Z,16.80
2018-06-04T01:41:30.942Z,16.80
2018-06-04T01:43:59.335Z,16.80
2018-06-04T01:46:27.733Z,16.80
2018-06-04T01:48:56.143Z,16.80
2018-06-04T01:51:24.554Z,16.70
2018-06-04T01:53:52.963Z,16.70
2018-06-04T01:56:21.362Z,16.70
2018-06-04T01:58:49.747Z,16.70
2018-06-04T02:01:18.166Z,16.70
2018-06-04T02:03:46.604Z,16.70
2018-06-04T02:06:15.022Z,16.70
2018-06-04T02:08:43.441Z,16.70
2018-06-04T02:11:11.851Z,16.70
2018-06-04T02:13:40.262Z,16.70
2018-06-04T02:16:08.686Z,16.70
2018-06-04T02:18:37.100Z,16.70
2018-06-04T02:21:05.531Z,16.70
2018-06-04T02:23:33.981Z,16.80
2018-06-04T02:26:02.377Z,16.80
2018-06-04T02:28:30.819Z,16.70
2018-06-04T02:30:59.223Z,16.70
2018-06-04T02:33:27.635Z,16.70
2018-06-04T02:35:56.047Z,16.70
2018-06-04T02:38:24.475Z,16.60
2018-06-04T02:40:53.100Z,16.60
2018-06-04T02:43:21.517Z,16.60
2018-06-04T02:45:49.919Z,16.60
2018-06-04T02:48:18.358Z,16.60
2018-06-04T02:50:46.770Z,16.60
2018-06-04T02:53:15.187Z,16.50
2018-06-04T02:55:43.596Z,16.50
2018-06-04T02:58:12.060Z,16.50
2018-06-04T03:00:40.467Z,16.40
2018-06-04T03:03:08.860Z,16.40
2018-06-04T03:05:37.278Z,16.40
2018-06-04T03:08:05.691Z,16.40
2018-06-04T03:10:34.111Z,16.40
2018-06-04T03:13:02.535Z,16.40
2018-06-04T03:15:30.940Z,16.40
2018-06-04T03:17:59.358Z,16.40
2018-06-04T03:20:27.770Z,16.40
2018-06-04T03:22:56.248Z,16.30
2018-06-04T03:25:24.660Z,16.30
2018-06-04T03:27:53.062Z,16.30
2018-06-04T03:32:49.659Z,16.40
2018-06-04T03:35:18.072Z,16.30
2018-06-04T03:37:46.517Z,16.30
2018-06-04T03:40:14.914Z,16.40
2018-06-04T03:42:43.322Z,16.40
2018-06-04T03:45:12.119Z,16.40
2018-06-04T03:47:40.525Z,16.40
2018-06-04T03:50:08.942Z,16.40
2018-06-04T03:52:37.368Z,16.40
2018-06-04T03:55:05.772Z,16.40
2018-06-04T03:57:34.207Z,16.50
2018-06-04T04:00:02.636Z,16.50
2018-06-04T04:02:31.083Z,16.50
2018-06-04T04:04:59.506Z,16.60
2018-06-04T04:07:27.908Z,16.60
2018-06-04T04:09:56.349Z,16.70
2018-06-04T04:12:24.764Z,16.70
2018-06-04T04:14:53.187Z,16.70
2018-06-04T04:19:49.732Z,16.80
2018-06-04T04:22:18.162Z,16.90
2018-06-04T04:24:46.608Z,16.90
2018-06-04T04:29:43.110Z,17.00
2018-06-04T04:32:11.544Z,17.00
2018-06-04T04:34:39.963Z,17.10
2018-06-04T04:37:08.373Z,17.10
2018-06-04T04:39:36.808Z,17.20
2018-06-04T04:42:05.202Z,17.30
2018-06-04T04:44:33.648Z,17.30
2018-06-04T04:47:02.081Z,17.40
2018-06-04T04:49:30.527Z,17.50
2018-06-04T04:51:58.934Z,17.50
2018-06-04T04:54:27.347Z,17.60
2018-06-04T04:56:55.749Z,17.70
2018-06-04T04:59:24.179Z,17.80
2018-06-04T05:01:54.165Z,17.80
2018-06-04T05:04:22.607Z,17.90
2018-06-04T05:06:51.016Z,18.00
2018-06-04T05:09:19.431Z,18.10
2018-06-04T05:11:47.853Z,18.20
2018-06-04T05:14:16.266Z,18.30
2018-06-04T05:16:44.697Z,18.30
2018-06-04T05:19:13.088Z,18.30
2018-06-04T05:21:41.499Z,18.30
2018-06-04T05:24:09.916Z,18.30
2018-06-04T05:26:38.323Z,18.40
2018-06-04T05:29:06.937Z,18.40
2018-06-04T05:31:35.359Z,18.50
2018-06-04T05:34:04.760Z,18.60
2018-06-04T05:36:33.223Z,18.60
2018-06-04T05:39:01.633Z,18.70
2018-06-04T05:41:30.092Z,18.80
2018-06-04T05:43:58.519Z,18.80
2018-06-04T05:46:26.951Z,18.90
2018-06-04T05:48:55.354Z,19.00
2018-06-04T05:51:23.804Z,19.10
2018-06-04T05:53:52.253Z,19.30
2018-06-04T05:56:21.200Z,19.40
2018-06-04T05:58:49.614Z,19.50
2018-06-04T06:01:18.019Z,19.80
2018-06-04T06:03:46.434Z,20.00
2018-06-04T06:06:15.003Z,20.30
2018-06-04T06:08:43.668Z,20.50
2018-06-04T06:11:12.131Z,20.70
2018-06-04T06:13:40.538Z,21.00
2018-06-04T06:16:08.942Z,21.90
2018-06-04T06:18:37.348Z,23.90
2018-06-04T06:21:05.767Z,26.10
2018-06-04T06:23:34.206Z,27.50
2018-06-04T06:26:02.724Z,28.20
2018-06-04T06:28:31.151Z,29.70
2018-06-04T06:31:00.620Z,31.20
2018-06-04T06:33:29.058Z,32.70
2018-06-04T06:35:57.458Z,33.90
2018-06-04T06:38:25.891Z,34.60
2018-06-04T06:40:54.311Z,35.20
2018-06-04T06:43:22.710Z,36.00
2018-06-04T06:45:51.118Z,36.90
2018-06-04T06:48:19.551Z,37.40
2018-06-04T06:50:47.974Z,37.60
2018-06-04T06:53:16.739Z,37.80
2018-06-04T06:55:45.192Z,38.10
2018-06-04T06:58:13.591Z,38.30
2018-06-04T07:00:42.002Z,38.70
2018-06-04T07:05:38.515Z,39.60
2018-06-04T07:08:06.964Z,39.90
2018-06-04T07:10:36.030Z,40.40
2018-06-04T07:13:04.461Z,40.60
2018-06-04T07:15:32.900Z,40.80
2018-06-04T07:18:01.320Z,41.10
2018-06-04T07:20:29.719Z,41.20
2018-06-04T07:22:58.131Z,41.00
2018-06-04T07:25:26.559Z,39.80
2018-06-04T07:27:54.969Z,38.50
2018-06-04T07:30:23.384Z,37.20
2018-06-04T07:32:51.823Z,36.30
2018-06-04T07:35:20.227Z,35.90
2018-06-04T07:37:48.635Z,35.20
2018-06-04T07:40:17.062Z,34.60
2018-06-04T07:42:45.854Z,35.10
2018-06-04T07:45:14.296Z,35.70
2018-06-04T07:47:43.559Z,36.60
2018-06-04T07:50:15.872Z,37.60
2018-06-04T07:52:44.511Z,38.50
2018-06-04T07:55:12.923Z,39.30
2018-06-04T07:57:41.950Z,39.90
2018-06-04T08:00:10.373Z,40.70
2018-06-04T08:02:38.768Z,41.10
2018-06-04T08:05:07.175Z,41.20
2018-06-04T08:07:35.778Z,41.40
2018-06-04T08:10:04.846Z,41.80
2018-06-04T08:12:33.287Z,42.10
2018-06-04T08:15:01.699Z,42.50
2018-06-04T08:17:30.119Z,43.00
2018-06-04T08:19:58.550Z,43.40
2018-06-04T08:22:26.973Z,43.70
2018-06-04T08:24:55.375Z,44.20
2018-06-04T08:27:23.809Z,44.50
2018-06-04T08:29:52.237Z,44.70
2018-06-04T08:32:20.655Z,44.80
2018-06-04T08:34:49.060Z,44.80
2018-06-04T08:37:17.488Z,44.70
2018-06-04T08:39:46.286Z,44.70
2018-06-04T08:42:14.699Z,44.60
2018-06-04T08:44:43.837Z,44.70
2018-06-04T08:47:12.264Z,44.90
2018-06-04T08:49:40.707Z,44.80
2018-06-04T08:52:09.663Z,44.70
2018-06-04T08:54:38.086Z,44.70
2018-06-04T08:57:06.512Z,44.70
2018-06-04T08:59:34.919Z,44.30
2018-06-04T09:02:03.340Z,43.50
2018-06-04T09:04:31.748Z,42.30
2018-06-04T09:07:00.139Z,41.30
2018-06-04T09:09:28.535Z,40.00
2018-06-04T09:11:57.376Z,38.90
2018-06-04T09:14:25.796Z,38.00
2018-06-04T09:16:54.224Z,37.40
2018-06-04T09:19:22.651Z,36.70
2018-06-04T09:24:19.183Z,34.50
2018-06-04T09:26:47.643Z,33.50
2018-06-04T09:29:16.054Z,32.80
2018-06-04T09:31:44.454Z,32.60
2018-06-04T09:34:12.854Z,32.60
2018-06-04T09:36:41.282Z,32.50
2018-06-04T09:39:10.687Z,32.40
2018-06-04T09:41:39.075Z,32.30
2018-06-04T09:44:07.487Z,32.30
2018-06-04T09:49:04.016Z,32.50
2018-06-04T09:51:32.457Z,31.80
2018-06-04T09:54:00.897Z,31.10
2018-06-04T09:58:57.410Z,31.10
2018-06-04T10:01:25.824Z,31.30
2018-06-04T10:03:54.246Z,31.40
2018-06-04T10:06:22.648Z,31.20
2018-06-04T10:08:51.075Z,30.90
2018-06-04T10:11:19.491Z,30.70
2018-06-04T10:13:47.921Z,30.60
2018-06-04T10:16:16.348Z,30.60
2018-06-04T10:18:44.792Z,30.70
2018-06-04T10:21:13.204Z,30.80
2018-06-04T10:23:41.611Z,30.60
2018-06-04T10:26:10.015Z,30.30
2018-06-04T10:28:38.479Z,30.20
2018-06-04T10:31:06.930Z,30.00
2018-06-04T10:33:35.348Z,30.00
2018-06-04T10:36:03.771Z,29.90
2018-06-04T10:38:32.166Z,29.80
2018-06-04T10:41:00.583Z,29.80
2018-06-04T10:43:28.987Z,30.00
2018-06-04T10:45:57.419Z,30.10
2018-06-04T10:48:26.072Z,30.20
2018-06-04T10:50:55.439Z,30.00
2018-06-04T10:53:23.863Z,29.80
2018-06-04T10:55:52.270Z,29.50
2018-06-04T10:58:20.728Z,29.30
2018-06-04T11:00:49.691Z,29.20
2018-06-04T11:03:18.105Z,29.10
2018-06-04T11:05:46.508Z,29.10
2018-06-04T11:08:14.940Z,29.00
2018-06-04T11:10:43.365Z,28.80
2018-06-04T11:13:11.782Z,28.70
2018-06-04T11:15:40.191Z,28.40
2018-06-04T11:18:08.586Z,28.30
2018-06-04T11:20:37.011Z,28.30
2018-06-04T11:23:05.411Z,28.10
2018-06-04T11:25:33.831Z,27.90
2018-06-04T11:28:02.252Z,28.00
2018-06-04T11:30:30.796Z,28.10
2018-06-04T11:32:59.112Z,28.20
2018-06-04T11:35:28.357Z,28.20
2018-06-04T11:37:56.778Z,28.40
2018-06-04T11:40:25.194Z,28.40
2018-06-04T11:42:53.610Z,28.40
2018-06-04T11:45:22.019Z,28.20
2018-06-04T11:47:50.423Z,27.80
2018-06-04T11:50:18.828Z,27.70
2018-06-04T11:52:47.238Z,27.70
2018-06-04T11:55:15.647Z,27.70
2018-06-04T11:57:44.046Z,27.70
2018-06-04T12:00:12.442Z,27.40
2018-06-04T12:02:40.853Z,27.20
2018-06-04T12:05:09.306Z,27.30
2018-06-04T12:07:37.694Z,27.40
2018-06-04T12:10:06.114Z,27.50
2018-06-04T12:12:34.514Z,27.40
2018-06-04T12:15:02.931Z,27.20
2018-06-04T12:17:31.388Z,27.00
2018-06-04T12:19:59.791Z,27.00
2018-06-04T12:22:28.210Z,26.90
2018-06-04T12:24:56.615Z,27.00
2018-06-04T12:27:25.114Z,27.00
2018-06-04T12:29:53.536Z,26.80
2018-06-04T12:32:21.967Z,26.70
2018-06-04T12:34:50.380Z,26.70
2018-06-04T12:37:18.808Z,26.80
2018-06-04T12:39:47.283Z,27.00
2018-06-04T12:42:15.706Z,27.00
2018-06-04T12:44:44.119Z,27.00
2018-06-04T12:47:12.520Z,27.00
2018-06-04T12:49:42.083Z,26.90
2018-06-04T12:52:10.923Z,27.00
2018-06-04T12:54:39.334Z,27.00
2018-06-04T12:57:07.760Z,26.90
2018-06-04T12:59:36.198Z,26.90
2018-06-04T13:02:04.610Z,26.80
2018-06-04T13:04:33.026Z,26.70
2018-06-04T13:07:01.416Z,26.60
2018-06-04T13:09:29.822Z,26.70
2018-06-04T13:11:58.241Z,26.70
2018-06-04T13:14:26.707Z,26.60
2018-06-04T13:16:55.114Z,26.50
2018-06-04T13:19:24.454Z,26.60
2018-06-04T13:21:52.851Z,26.80
2018-06-04T13:24:21.257Z,27.00
2018-06-04T13:26:49.663Z,27.10
2018-06-04T13:29:18.125Z,27.00
2018-06-04T13:31:46.542Z,26.80
2018-06-04T13:34:15.044Z,26.60
2018-06-04T13:36:43.443Z,26.50
2018-06-04T13:39:11.888Z,26.30
2018-06-04T13:41:40.290Z,26.10
2018-06-04T13:44:08.688Z,26.00
2018-06-04T13:46:37.116Z,26.00
2018-06-04T13:49:05.541Z,26.10
2018-06-04T13:51:33.966Z,26.30
2018-06-04T13:54:02.370Z,26.50
2018-06-04T13:56:31.340Z,26.80
2018-06-04T13:58:59.768Z,27.00
2018-06-04T14:01:28.438Z,27.10
2018-06-04T14:03:56.842Z,27.00
2018-06-04T14:06:25.242Z,26.90
2018-06-04T14:08:54.611Z,26.70
2018-06-04T14:11:23.031Z,26.50
2018-06-04T14:13:51.434Z,26.30
2018-06-04T14:16:19.842Z,26.20
2018-06-04T14:18:48.247Z,26.10
2018-06-04T14:21:16.675Z,26.00
2018-06-04T14:23:45.076Z,26.00
2018-06-04T14:26:13.521Z,26.00
2018-06-04T14:28:42.364Z,25.90
2018-06-04T14:31:10.782Z,25.90
2018-06-04T14:33:39.236Z,25.90
2018-06-04T14:36:07.631Z,26.00
2018-06-04T14:38:36.033Z,26.10
2018-06-04T14:41:04.447Z,26.30
2018-06-04T14:43:32.866Z,26.40
2018-06-04T14:46:01.279Z,26.30
2018-06-04T14:48:29.930Z,26.30
2018-06-04T14:50:59.297Z,26.10
2018-06-04T14:53:27.707Z,26.00
2018-06-04T14:55:56.117Z,25.90
2018-06-04T14:58:24.510Z,25.90
2018-06-04T15:00:52.943Z,25.90
2018-06-04T15:03:21.358Z,25.70
2018-06-04T15:05:49.806Z,25.70
2018-06-04T15:08:18.266Z,25.70
2018-06-04T15:10:46.703Z,25.70
2018-06-04T15:13:15.126Z,25.70
2018-06-04T15:15:43.526Z,25.70
2018-06-04T15:18:11.955Z,25.70
2018-06-04T15:20:40.382Z,25.70
2018-06-04T15:23:09.074Z,25.60
2018-06-04T15:25:37.469Z,25.50
2018-06-04T15:28:06.030Z,25.60
2018-06-04T15:30:34.430Z,25.60
2018-06-04T15:33:03.247Z,25.70
2018-06-04T15:35:32.041Z,25.70
2018-06-04T15:38:00.796Z,25.70
2018-06-04T15:40:29.620Z,25.60
2018-06-04T15:42:58.529Z,25.60
2018-06-04T15:45:27.239Z,25.60
2018-06-04T15:47:55.886Z,25.70
2018-06-04T15:50:24.686Z,25.70
2018-06-04T15:52:54.929Z,25.60
2018-06-04T15:55:23.323Z,25.50
2018-06-04T15:57:51.725Z,25.20
2018-06-04T16:00:20.125Z,25.00
2018-06-04T16:02:48.610Z,24.90
2018-06-04T16:05:17.289Z,24.80
2018-06-04T16:07:46.559Z,24.70
2018-06-04T16:10:15.569Z,24.50
2018-06-04T16:12:44.011Z,24.50
2018-06-04T16:15:12.949Z,24.40
2018-06-04T16:17:41.349Z,24.40
2018-06-04T16:20:09.767Z,24.30
2018-06-04T16:25:06.292Z,24.40
2018-06-04T16:27:34.718Z,24.50
2018-06-04T16:30:03.135Z,24.50
2018-06-04T16:32:31.719Z,24.60
2018-06-04T16:35:00.116Z,24.60
2018-06-04T16:37:28.593Z,24.70
2018-06-04T16:39:56.969Z,24.70
2018-06-04T16:42:25.378Z,24.70
2018-06-04T16:44:53.811Z,24.60
2018-06-04T16:47:22.227Z,24.50
2018-06-04T16:49:50.644Z,24.50
2018-06-04T16:52:19.129Z,24.50
2018-06-04T16:54:47.529Z,24.50
2018-06-04T16:57:16.342Z,24.40
2018-06-04T16:59:44.756Z,24.40
2018-06-04T17:02:13.183Z,24.40
2018-06-04T17:04:41.772Z,24.30
2018-06-04T17:07:10.453Z,24.20
2018-06-04T17:09:38.906Z,24.20
2018-06-04T17:12:07.361Z,24.20
2018-06-04T17:14:35.786Z,24.20
2018-06-04T17:17:04.902Z,24.10
2018-06-04T17:19:33.322Z,24.10
2018-06-04T17:22:01.742Z,24.00
2018-06-04T17:24:30.150Z,24.00
2018-06-04T17:26:58.558Z,23.90
2018-06-04T17:29:26.970Z,23.80
2018-06-04T17:31:55.402Z,23.80
2018-06-04T17:34:24.035Z,23.80
2018-06-04T17:36:52.443Z,23.70
2018-06-04T17:39:20.837Z,23.60
2018-06-04T17:41:49.243Z,23.60
2018-06-04T17:44:17.635Z,23.60
2018-06-04T17:46:46.038Z,23.50
2018-06-04T17:49:14.450Z,23.50
2018-06-04T17:51:42.884Z,23.40
2018-06-04T17:54:11.440Z,23.40
2018-06-04T17:56:39.860Z,23.30
2018-06-04T17:59:08.261Z,23.20
2018-06-04T18:01:36.682Z,23.20
2018-06-04T18:04:05.232Z,23.10
2018-06-04T18:06:33.658Z,23.00
2018-06-04T18:09:02.067Z,22.90
2018-06-04T18:11:30.458Z,22.90
2018-06-04T18:13:58.883Z,22.80
2018-06-04T18:16:27.278Z,22.70
2018-06-04T18:18:55.665Z,22.60
2018-06-04T18:21:24.219Z,22.60
2018-06-04T18:23:52.642Z,22.50
2018-06-04T18:26:21.078Z,22.40
2018-06-04T18:28:49.487Z,22.40
2018-06-04T18:31:18.011Z,22.30
2018-06-04T18:33:46.423Z,22.20
2018-06-04T18:36:14.816Z,22.20
2018-06-04T18:38:43.226Z,22.10
2018-06-04T18:41:11.635Z,22.00
2018-06-04T18:43:40.052Z,21.90
2018-06-04T18:46:08.456Z,21.80
2018-06-04T18:48:36.883Z,21.70
2018-06-04T18:51:05.302Z,21.60
2018-06-04T18:53:33.730Z,21.50
2018-06-04T18:56:02.163Z,21.50
2018-06-04T18:58:30.587Z,21.40
2018-06-04T19:00:58.999Z,21.30
2018-06-04T19:03:27.412Z,21.20
2018-06-04T19:05:55.822Z,21.10
2018-06-04T19:08:24.224Z,21.10
2018-06-04T19:10:52.655Z,20.90
2018-06-04T19:13:21.100Z,20.90
2018-06-04T19:15:49.578Z,20.80
2018-06-04T19:18:18.017Z,20.70
2018-06-04T19:20:46.438Z,20.60
2018-06-04T19:23:14.881Z,20.50
2018-06-04T19:25:43.295Z,20.50
2018-06-04T19:28:11.710Z,20.40
2018-06-04T19:30:41.522Z,20.30
2018-06-04T19:33:09.986Z,20.30
2018-06-04T19:35:38.486Z,20.20
2018-06-04T19:38:06.939Z,20.10
2018-06-04T19:40:35.618Z,20.10
2018-06-04T19:43:04.007Z,20.00
2018-06-04T19:45:34.162Z,20.00
2018-06-04T19:48:02.576Z,19.90
2018-06-04T19:50:31.099Z,19.80
2018-06-04T19:53:00.702Z,19.80
2018-06-04T19:55:30.384Z,19.70
2018-06-04T19:57:58.820Z,19.60
2018-06-04T20:00:27.223Z,19.50
2018-06-04T20:02:55.625Z,19.50
2018-06-04T20:05:24.047Z,19.40
2018-06-04T20:07:52.473Z,19.40
2018-06-04T20:10:21.115Z,19.30
2018-06-04T20:12:49.528Z,19.30
2018-06-04T20:15:17.930Z,19.20
2018-06-04T20:17:46.386Z,19.20
2018-06-04T20:20:14.803Z,19.10
2018-06-04T20:22:43.208Z,19.00
2018-06-04T20:25:11.627Z,19.00
2018-06-04T20:27:40.062Z,18.90
2018-06-04T20:30:08.470Z,18.80
2018-06-04T20:32:36.882Z,18.80
2018-06-04T20:35:05.310Z,18.80
2018-06-04T20:37:33.721Z,18.80
2018-06-04T20:40:02.139Z,18.80
2018-06-04T20:42:30.564Z,18.80
2018-06-04T20:44:59.947Z,18.80
2018-06-04T20:47:28.371Z,18.80
2018-06-04T20:49:56.791Z,18.80
2018-06-04T20:52:25.202Z,18.80
2018-06-04T20:54:53.603Z,18.80
2018-06-04T20:57:22.004Z,18.70
2018-06-04T20:59:50.426Z,18.70
2018-06-04T21:02:18.850Z,18.70
2018-06-04T21:04:48.807Z,18.60
2018-06-04T21:07:17.207Z,18.60
2018-06-04T21:09:45.625Z,18.60
2018-06-04T21:12:14.028Z,18.50
2018-06-04T21:14:42.456Z,18.50
2018-06-04T21:17:10.867Z,18.50
2018-06-04T21:19:39.337Z,18.50
2018-06-04T21:22:07.732Z,18.50
2018-06-04T21:24:36.163Z,18.50
2018-06-04T21:27:04.587Z,18.50
2018-06-04T21:29:33.039Z,18.50
2018-06-04T21:32:01.502Z,18.50
2018-06-04T21:34:31.403Z,18.50
2018-06-04T21:36:59.922Z,18.60
2018-06-04T21:39:28.328Z,18.60
2018-06-04T21:41:56.730Z,18.70
2018-06-04T21:44:25.178Z,18.70
2018-06-04T21:46:53.582Z,18.70
2018-06-04T21:49:21.990Z,18.70
2018-06-04T21:51:50.387Z,18.70
2018-06-04T21:54:18.821Z,18.70
2018-06-04T21:56:47.252Z,18.80
2018-06-04T21:59:15.655Z,18.80
2018-06-04T22:01:44.055Z,18.80
2018-06-04T22:04:12.458Z,18.80
2018-06-04T22:06:40.894Z,18.80
2018-06-04T22:09:09.338Z,18.80
2018-06-04T22:11:37.729Z,18.80
2018-06-04T22:14:06.212Z,18.80
2018-06-04T22:16:34.631Z,18.90
2018-06-04T22:19:03.023Z,18.90
2018-06-04T22:21:31.440Z,18.90
2018-06-04T22:23:59.899Z,18.90
2018-06-04T22:26:28.290Z,18.90
2018-06-04T22:28:56.723Z,18.90
2018-06-04T22:31:25.150Z,18.90
2018-06-04T22:33:53.571Z,18.90
2018-06-04T22:36:21.982Z,18.90
2018-06-04T22:38:51.042Z,19.00
2018-06-04T22:41:19.503Z,19.00
2018-06-04T22:43:48.749Z,19.00
2018-06-04T22:46:17.158Z,19.00
2018-06-04T22:48:45.582Z,18.90
2018-06-04T22:51:14.006Z,18.90
2018-06-04T22:53:42.600Z,19.00
2018-06-04T22:56:11.019Z,19.00
2018-06-04T22:58:39.460Z,18.90
2018-06-04T23:01:08.200Z,18.90
2018-06-04T23:03:36.620Z,18.90
2018-06-04T23:06:05.027Z,18.90
2018-06-04T23:08:33.447Z,18.90
2018-06-04T23:13:30.007Z,18.80
2018-06-04T23:15:58.426Z,18.70
2018-06-04T23:18:26.827Z,18.80
2018-06-04T23:20:55.622Z,18.80
2018-06-04T23:23:24.044Z,18.80
2018-06-04T23:25:53.663Z,18.80
2018-06-04T23:28:22.099Z,18.80
2018-06-04T23:30:51.080Z,18.80
2018-06-04T23:33:19.503Z,18.80
2018-06-04T23:35:47.915Z,18.80
2018-06-04T23:38:16.318Z,18.80
2018-06-04T23:40:44.749Z,18.80
2018-06-04T23:45:41.328Z,18.80
2018-06-04T23:48:09.739Z,18.80
2018-06-04T23:50:38.153Z,18.80
2018-06-04T23:55:34.695Z,18.80
2018-06-04T23:58:03.107Z,18.80
